sensor_id;sensor_type;location;lat;lon;timestamp;temperature;humidity
9482;DHT22;4779;48.062;11.672;2023-05-16T00:01:26;10.50;99.90
9482;DHT22;4779;48.062;11.672;2023-05-16T00:03:54;10.50;99.90
9482;DHT22;4779;48.062;11.672;2023-05-16T00:06:23;10.50;99.90
9482;DHT22;4779;48.062;11.672;2023-05-16T00:08:50;10.50;99.90
9482;DHT22;4779;48.062;11.672;2023-05-16T00:11:17;10.40;99.90
9482;DHT22;4779;48.062;11.672;2023-05-16T00:13:44;10.40;99.90
9482;DHT22;4779;48.062;11.672;2023-05-16T00:16:12;10.40;99.90
9482;DHT22;4779;48.062;11.672;2023-05-16T00:18:40;10.40;99.90
9482;DHT22;4779;48.062;11.672;2023-05-16T00:21:10;10.40;99.90
9482;DHT22;4779;48.062;11.672;2023-05-16T00:23:38;10.40;99.90
9482;DHT22;4779;48.062;11.672;2023-05-16T00:26:05;10.40;99.90
9482;DHT22;4779;48.062;11.672;2023-05-16T00:28:32;10.30;99.90
9482;DHT22;4779;48.062;11.672;2023-05-16T00:30:59;10.30;99.90
9482;DHT22;4779;48.062;11.672;2023-05-16T00:33:26;10.30;99.90
9482;DHT22;4779;48.062;11.672;2023-05-16T00:35:53;10.20;99.90
9482;DHT22;4779;48.062;11.672;2023-05-16T00:38:20;10.30;99.90
9482;DHT22;4779;48.062;11.672;2023-05-16T00:40:48;10.20;99.90
9482;DHT22;4779;48.062;11.672;2023-05-16T00:43:15;10.20;99.90
9482;DHT22;4779;48.062;11.672;2023-05-16T00:45:42;10.20;99.90
9482;DHT22;4779;48.062;11.672;2023-05-16T00:48:10;10.20;99.90
9482;DHT22;4779;48.062;11.672;2023-05-16T00:50:38;10.20;99.90
9482;DHT22;4779;48.062;11.672;2023-05-16T00:53:05;10.10;99.90
9482;DHT22;4779;48.062;11.672;2023-05-16T00:55:32;10.10;99.90
9482;DHT22;4779;48.062;11.672;2023-05-16T00:58:00;10.20;99.90
9482;DHT22;4779;48.062;11.672;2023-05-16T01:00:27;10.20;99.90
9482;DHT22;4779;48.062;11.672;2023-05-16T01:02:54;10.20;99.90
9482;DHT22;4779;48.062;11.672;2023-05-16T01:05:21;10.30;99.90
9482;DHT22;4779;48.062;11.672;2023-05-16T01:07:48;10.30;99.90
9482;DHT22;4779;48.062;11.672;2023-05-16T01:10:15;10.40;99.90
9482;DHT22;4779;48.062;11.672;2023-05-16T01:12:50;10.40;99.90
9482;DHT22;4779;48.062;11.672;2023-05-16T01:15:26;10.50;99.90
9482;DHT22;4779;48.062;11.672;2023-05-16T01:17:59;10.50;99.90
9482;DHT22;4779;48.062;11.672;2023-05-16T01:20:36;10.50;99.90
9482;DHT22;4779;48.062;11.672;2023-05-16T01:23:16;10.60;99.90
9482;DHT22;4779;48.062;11.672;2023-05-16T01:25:54;10.60;99.90
9482;DHT22;4779;48.062;11.672;2023-05-16T01:28:23;10.60;99.90
9482;DHT22;4779;48.062;11.672;2023-05-16T01:30:51;10.60;99.90
9482;DHT22;4779;48.062;11.672;2023-05-16T01:33:18;10.50;99.90
9482;DHT22;4779;48.062;11.672;2023-05-16T01:35:52;10.50;99.90
9482;DHT22;4779;48.062;11.672;2023-05-16T01:38:24;10.50;99.90
9482;DHT22;4779;48.062;11.672;2023-05-16T01:40:54;10.50;99.90
9482;DHT22;4779;48.062;11.672;2023-05-16T01:43:29;10.50;99.90
9482;DHT22;4779;48.062;11.672;2023-05-16T01:46:03;10.50;99.90
9482;DHT22;4779;48.062;11.672;2023-05-16T01:48:38;10.50;99.90
9482;DHT22;4779;48.062;11.672;2023-05-16T01:51:10;10.50;99.90
9482;DHT22;4779;48.062;11.672;2023-05-16T01:53:38;10.50;99.90
9482;DHT22;4779;48.062;11.672;2023-05-16T01:56:09;10.50;99.90
9482;DHT22;4779;48.062;11.672;2023-05-16T01:58:38;10.40;99.90
9482;DHT22;4779;48.062;11.672;2023-05-16T02:01:06;10.50;99.90
9482;DHT22;4779;48.062;11.672;2023-05-16T02:03:33;10.50;99.90
9482;DHT22;4779;48.062;11.672;2023-05-16T02:06:00;10.40;99.90
9482;DHT22;4779;48.062;11.672;2023-05-16T02:08:27;10.40;99.90
9482;DHT22;4779;48.062;11.672;2023-05-16T02:10:54;10.40;99.90
9482;DHT22;4779;48.062;11.672;2023-05-16T02:13:21;10.40;99.90
9482;DHT22;4779;48.062;11.672;2023-05-16T02:15:50;10.40;99.90
9482;DHT22;4779;48.062;11.672;2023-05-16T02:18:17;10.40;99.90
9482;DHT22;4779;48.062;11.672;2023-05-16T02:20:44;10.40;99.90
9482;DHT22;4779;48.062;11.672;2023-05-16T02:23:12;10.50;99.90
9482;DHT22;4779;48.062;11.672;2023-05-16T02:25:39;10.40;99.90
9482;DHT22;4779;48.062;11.672;2023-05-16T02:28:06;10.40;99.90
9482;DHT22;4779;48.062;11.672;2023-05-16T02:30:32;10.50;99.90
9482;DHT22;4779;48.062;11.672;2023-05-16T02:33:01;10.40;99.90
9482;DHT22;4779;48.062;11.672;2023-05-16T02:35:28;10.40;99.90
9482;DHT22;4779;48.062;11.672;2023-05-16T02:37:55;10.40;99.90
9482;DHT22;4779;48.062;11.672;2023-05-16T02:40:22;10.50;99.90
9482;DHT22;4779;48.062;11.672;2023-05-16T02:42:49;10.40;99.90
9482;DHT22;4779;48.062;11.672;2023-05-16T02:45:16;10.40;99.90
9482;DHT22;4779;48.062;11.672;2023-05-16T02:47:43;10.40;99.90
9482;DHT22;4779;48.062;11.672;2023-05-16T02:50:11;10.40;99.90
9482;DHT22;4779;48.062;11.672;2023-05-16T02:52:38;10.40;99.90
9482;DHT22;4779;48.062;11.672;2023-05-16T02:55:06;10.40;99.90
9482;DHT22;4779;48.062;11.672;2023-05-16T02:57:33;10.30;99.90
9482;DHT22;4779;48.062;11.672;2023-05-16T03:00:00;10.40;99.90
9482;DHT22;4779;48.062;11.672;2023-05-16T03:02:27;10.40;99.90
9482;DHT22;4779;48.062;11.672;2023-05-16T03:04:54;10.40;99.90
9482;DHT22;4779;48.062;11.672;2023-05-16T03:07:22;10.40;99.90
9482;DHT22;4779;48.062;11.672;2023-05-16T03:09:49;10.40;99.90
9482;DHT22;4779;48.062;11.672;2023-05-16T03:12:16;10.40;99.90
9482;DHT22;4779;48.062;11.672;2023-05-16T03:14:42;10.40;99.90
9482;DHT22;4779;48.062;11.672;2023-05-16T03:17:10;10.40;99.90
9482;DHT22;4779;48.062;11.672;2023-05-16T03:19:40;10.40;99.90
9482;DHT22;4779;48.062;11.672;2023-05-16T03:22:10;10.40;99.90
9482;DHT22;4779;48.062;11.672;2023-05-16T03:24:38;10.40;99.90
9482;DHT22;4779;48.062;11.672;2023-05-16T03:27:05;10.40;99.90
9482;DHT22;4779;48.062;11.672;2023-05-16T03:29:32;10.40;99.90
9482;DHT22;4779;48.062;11.672;2023-05-16T03:31:59;10.40;99.90
9482;DHT22;4779;48.062;11.672;2023-05-16T03:34:26;10.40;99.90
9482;DHT22;4779;48.062;11.672;2023-05-16T03:36:53;10.40;99.90
9482;DHT22;4779;48.062;11.672;2023-05-16T03:39:20;10.40;99.90
9482;DHT22;4779;48.062;11.672;2023-05-16T03:41:48;10.40;99.90
9482;DHT22;4779;48.062;11.672;2023-05-16T03:44:16;10.50;99.90
9482;DHT22;4779;48.062;11.672;2023-05-16T03:46:43;10.40;99.90
9482;DHT22;4779;48.062;11.672;2023-05-16T03:49:10;10.40;99.90
9482;DHT22;4779;48.062;11.672;2023-05-16T03:51:37;10.40;99.90
9482;DHT22;4779;48.062;11.672;2023-05-16T03:54:04;10.40;99.90
9482;DHT22;4779;48.062;11.672;2023-05-16T03:56:31;10.50;99.90
9482;DHT22;4779;48.062;11.672;2023-05-16T03:58:59;10.40;99.90
9482;DHT22;4779;48.062;11.672;2023-05-16T04:01:26;10.40;99.90
9482;DHT22;4779;48.062;11.672;2023-05-16T04:03:54;10.40;99.90
9482;DHT22;4779;48.062;11.672;2023-05-16T04:06:21;10.40;99.90
9482;DHT22;4779;48.062;11.672;2023-05-16T04:08:48;10.40;99.90
9482;DHT22;4779;48.062;11.672;2023-05-16T04:11:15;10.30;99.90
9482;DHT22;4779;48.062;11.672;2023-05-16T04:13:41;10.30;99.90
9482;DHT22;4779;48.062;11.672;2023-05-16T04:16:10;10.30;99.90
9482;DHT22;4779;48.062;11.672;2023-05-16T04:18:37;10.30;99.90
9482;DHT22;4779;48.062;11.672;2023-05-16T04:21:04;10.40;99.90
9482;DHT22;4779;48.062;11.672;2023-05-16T04:23:32;10.40;99.90
9482;DHT22;4779;48.062;11.672;2023-05-16T04:25:59;10.40;99.90
9482;DHT22;4779;48.062;11.672;2023-05-16T04:28:26;10.40;99.90
9482;DHT22;4779;48.062;11.672;2023-05-16T04:30:53;10.40;99.90
9482;DHT22;4779;48.062;11.672;2023-05-16T04:33:21;10.40;99.90
9482;DHT22;4779;48.062;11.672;2023-05-16T04:35:48;10.40;99.90
9482;DHT22;4779;48.062;11.672;2023-05-16T04:38:16;10.40;99.90
9482;DHT22;4779;48.062;11.672;2023-05-16T04:40:43;10.30;99.90
9482;DHT22;4779;48.062;11.672;2023-05-16T04:43:10;10.40;99.90
9482;DHT22;4779;48.062;11.672;2023-05-16T04:45:37;10.40;99.90
9482;DHT22;4779;48.062;11.672;2023-05-16T04:48:04;10.40;99.90
9482;DHT22;4779;48.062;11.672;2023-05-16T04:50:32;10.40;99.90
9482;DHT22;4779;48.062;11.672;2023-05-16T04:52:59;10.40;99.90
9482;DHT22;4779;48.062;11.672;2023-05-16T04:55:27;10.40;99.90
9482;DHT22;4779;48.062;11.672;2023-05-16T04:57:53;10.40;99.90
9482;DHT22;4779;48.062;11.672;2023-05-16T05:00:21;10.40;99.90
9482;DHT22;4779;48.062;11.672;2023-05-16T05:02:48;10.40;99.90
9482;DHT22;4779;48.062;11.672;2023-05-16T05:05:15;10.40;99.90
9482;DHT22;4779;48.062;11.672;2023-05-16T05:07:43;10.40;99.90
9482;DHT22;4779;48.062;11.672;2023-05-16T05:10:10;10.40;99.90
9482;DHT22;4779;48.062;11.672;2023-05-16T05:12:37;10.40;99.90
9482;DHT22;4779;48.062;11.672;2023-05-16T05:15:05;10.40;99.90
9482;DHT22;4779;48.062;11.672;2023-05-16T05:17:33;10.50;99.90
9482;DHT22;4779;48.062;11.672;2023-05-16T05:20:00;10.50;99.90
9482;DHT22;4779;48.062;11.672;2023-05-16T05:22:31;10.50;99.90
9482;DHT22;4779;48.062;11.672;2023-05-16T05:24:59;10.50;99.90
9482;DHT22;4779;48.062;11.672;2023-05-16T05:27:27;10.50;99.90
9482;DHT22;4779;48.062;11.672;2023-05-16T05:29:54;10.40;99.90
9482;DHT22;4779;48.062;11.672;2023-05-16T05:32:21;10.40;99.90
9482;DHT22;4779;48.062;11.672;2023-05-16T05:34:48;10.40;99.90
9482;DHT22;4779;48.062;11.672;2023-05-16T05:37:15;10.30;99.90
9482;DHT22;4779;48.062;11.672;2023-05-16T05:39:42;10.40;99.90
9482;DHT22;4779;48.062;11.672;2023-05-16T05:42:11;10.40;99.90
9482;DHT22;4779;48.062;11.672;2023-05-16T05:44:38;10.50;99.90
9482;DHT22;4779;48.062;11.672;2023-05-16T05:47:05;10.40;99.90
9482;DHT22;4779;48.062;11.672;2023-05-16T05:49:32;10.50;99.90
9482;DHT22;4779;48.062;11.672;2023-05-16T05:52:00;10.50;99.90
9482;DHT22;4779;48.062;11.672;2023-05-16T05:54:27;10.50;99.90
9482;DHT22;4779;48.062;11.672;2023-05-16T05:56:55;10.50;99.90
9482;DHT22;4779;48.062;11.672;2023-05-16T05:59:24;10.50;99.90
9482;DHT22;4779;48.062;11.672;2023-05-16T06:01:51;10.50;99.90
9482;DHT22;4779;48.062;11.672;2023-05-16T06:04:18;10.40;99.90
9482;DHT22;4779;48.062;11.672;2023-05-16T06:06:45;10.40;99.90
9482;DHT22;4779;48.062;11.672;2023-05-16T06:09:12;10.40;99.90
9482;DHT22;4779;48.062;11.672;2023-05-16T06:11:39;10.40;99.90
9482;DHT22;4779;48.062;11.672;2023-05-16T06:14:06;10.40;99.90
9482;DHT22;4779;48.062;11.672;2023-05-16T06:16:34;10.50;99.90
9482;DHT22;4779;48.062;11.672;2023-05-16T06:19:01;10.60;99.90
9482;DHT22;4779;48.062;11.672;2023-05-16T06:21:28;10.50;99.90
9482;DHT22;4779;48.062;11.672;2023-05-16T06:23:55;10.50;99.90
9482;DHT22;4779;48.062;11.672;2023-05-16T06:26:22;10.50;99.90
9482;DHT22;4779;48.062;11.672;2023-05-16T06:28:49;10.60;99.90
9482;DHT22;4779;48.062;11.672;2023-05-16T06:31:16;10.60;99.90
9482;DHT22;4779;48.062;11.672;2023-05-16T06:33:44;10.60;99.90
9482;DHT22;4779;48.062;11.672;2023-05-16T06:36:11;10.70;99.90
9482;DHT22;4779;48.062;11.672;2023-05-16T06:38:38;10.60;99.90
9482;DHT22;4779;48.062;11.672;2023-05-16T06:41:05;10.60;99.90
9482;DHT22;4779;48.062;11.672;2023-05-16T06:43:32;10.60;99.90
9482;DHT22;4779;48.062;11.672;2023-05-16T06:45:58;10.50;99.90
9482;DHT22;4779;48.062;11.672;2023-05-16T06:48:25;10.60;99.90
9482;DHT22;4779;48.062;11.672;2023-05-16T06:50:54;10.50;99.90
9482;DHT22;4779;48.062;11.672;2023-05-16T06:53:22;10.40;99.90
9482;DHT22;4779;48.062;11.672;2023-05-16T06:55:49;10.40;99.90
9482;DHT22;4779;48.062;11.672;2023-05-16T06:58:15;10.40;99.90
9482;DHT22;4779;48.062;11.672;2023-05-16T07:00:43;10.40;99.90
9482;DHT22;4779;48.062;11.672;2023-05-16T07:03:09;10.50;99.90
9482;DHT22;4779;48.062;11.672;2023-05-16T07:05:36;10.50;99.90
9482;DHT22;4779;48.062;11.672;2023-05-16T07:08:05;10.60;99.90
9482;DHT22;4779;48.062;11.672;2023-05-16T07:10:32;10.60;99.90
9482;DHT22;4779;48.062;11.672;2023-05-16T07:12:58;10.70;99.90
9482;DHT22;4779;48.062;11.672;2023-05-16T07:15:26;10.70;99.90
9482;DHT22;4779;48.062;11.672;2023-05-16T07:17:53;10.70;99.90
9482;DHT22;4779;48.062;11.672;2023-05-16T07:20:19;10.60;99.90
9482;DHT22;4779;48.062;11.672;2023-05-16T07:22:46;10.70;99.90
9482;DHT22;4779;48.062;11.672;2023-05-16T07:25:15;10.70;99.90
9482;DHT22;4779;48.062;11.672;2023-05-16T07:27:42;10.70;99.90
9482;DHT22;4779;48.062;11.672;2023-05-16T07:30:11;10.70;99.90
9482;DHT22;4779;48.062;11.672;2023-05-16T07:32:38;10.70;99.90
9482;DHT22;4779;48.062;11.672;2023-05-16T07:35:06;10.60;99.90
9482;DHT22;4779;48.062;11.672;2023-05-16T07:37:33;10.70;99.90
9482;DHT22;4779;48.062;11.672;2023-05-16T07:40:01;10.60;99.90
9482;DHT22;4779;48.062;11.672;2023-05-16T07:42:30;10.60;99.90
9482;DHT22;4779;48.062;11.672;2023-05-16T07:44:57;10.60;99.90
9482;DHT22;4779;48.062;11.672;2023-05-16T07:47:24;10.70;99.90
9482;DHT22;4779;48.062;11.672;2023-05-16T07:49:51;10.80;99.90
9482;DHT22;4779;48.062;11.672;2023-05-16T07:52:18;10.80;99.90
9482;DHT22;4779;48.062;11.672;2023-05-16T07:54:46;10.70;99.90
9482;DHT22;4779;48.062;11.672;2023-05-16T07:57:13;10.80;99.90
9482;DHT22;4779;48.062;11.672;2023-05-16T07:59:41;10.80;99.90
9482;DHT22;4779;48.062;11.672;2023-05-16T08:02:09;10.80;99.90
9482;DHT22;4779;48.062;11.672;2023-05-16T08:04:36;10.80;99.90
9482;DHT22;4779;48.062;11.672;2023-05-16T08:07:03;10.90;99.90
9482;DHT22;4779;48.062;11.672;2023-05-16T08:09:30;10.90;99.90
9482;DHT22;4779;48.062;11.672;2023-05-16T08:11:57;10.90;99.90
9482;DHT22;4779;48.062;11.672;2023-05-16T08:14:28;10.90;99.90
9482;DHT22;4779;48.062;11.672;2023-05-16T08:16:57;11.00;99.90
9482;DHT22;4779;48.062;11.672;2023-05-16T08:19:24;11.00;99.90
9482;DHT22;4779;48.062;11.672;2023-05-16T08:21:51;11.00;99.90
9482;DHT22;4779;48.062;11.672;2023-05-16T08:24:18;11.00;99.90
9482;DHT22;4779;48.062;11.672;2023-05-16T08:26:45;11.00;99.90
9482;DHT22;4779;48.062;11.672;2023-05-16T08:29:12;11.10;99.90
9482;DHT22;4779;48.062;11.672;2023-05-16T08:31:39;11.20;99.90
9482;DHT22;4779;48.062;11.672;2023-05-16T08:34:07;11.30;99.90
9482;DHT22;4779;48.062;11.672;2023-05-16T08:36:34;11.40;99.90
9482;DHT22;4779;48.062;11.672;2023-05-16T08:39:02;11.60;99.90
9482;DHT22;4779;48.062;11.672;2023-05-16T08:41:29;11.60;99.90
9482;DHT22;4779;48.062;11.672;2023-05-16T08:43:56;11.60;99.90
9482;DHT22;4779;48.062;11.672;2023-05-16T08:46:24;11.60;99.90
9482;DHT22;4779;48.062;11.672;2023-05-16T08:48:53;11.70;99.90
9482;DHT22;4779;48.062;11.672;2023-05-16T08:51:27;11.60;99.90
9482;DHT22;4779;48.062;11.672;2023-05-16T08:54:02;11.50;99.90
9482;DHT22;4779;48.062;11.672;2023-05-16T08:56:30;11.60;99.90
9482;DHT22;4779;48.062;11.672;2023-05-16T08:59:00;11.70;99.90
9482;DHT22;4779;48.062;11.672;2023-05-16T09:01:28;11.80;99.90
9482;DHT22;4779;48.062;11.672;2023-05-16T09:03:55;11.80;99.90
9482;DHT22;4779;48.062;11.672;2023-05-16T09:06:22;11.80;99.90
9482;DHT22;4779;48.062;11.672;2023-05-16T09:08:52;11.80;99.90
9482;DHT22;4779;48.062;11.672;2023-05-16T09:11:19;11.80;99.90
9482;DHT22;4779;48.062;11.672;2023-05-16T09:13:46;11.90;99.90
9482;DHT22;4779;48.062;11.672;2023-05-16T09:16:15;12.00;99.90
9482;DHT22;4779;48.062;11.672;2023-05-16T09:18:44;12.10;99.90
9482;DHT22;4779;48.062;11.672;2023-05-16T09:21:12;12.20;99.90
9482;DHT22;4779;48.062;11.672;2023-05-16T09:23:41;12.40;99.90
9482;DHT22;4779;48.062;11.672;2023-05-16T09:26:11;12.60;99.90
9482;DHT22;4779;48.062;11.672;2023-05-16T09:28:38;12.80;99.90
9482;DHT22;4779;48.062;11.672;2023-05-16T09:31:19;13.00;99.90
9482;DHT22;4779;48.062;11.672;2023-05-16T09:33:47;13.30;99.90
9482;DHT22;4779;48.062;11.672;2023-05-16T09:36:14;13.20;99.90
9482;DHT22;4779;48.062;11.672;2023-05-16T09:38:41;13.30;99.90
9482;DHT22;4779;48.062;11.672;2023-05-16T09:41:10;13.10;99.90
9482;DHT22;4779;48.062;11.672;2023-05-16T09:43:38;12.90;99.90
9482;DHT22;4779;48.062;11.672;2023-05-16T09:46:06;13.20;99.90
9482;DHT22;4779;48.062;11.672;2023-05-16T09:48:33;13.40;99.90
9482;DHT22;4779;48.062;11.672;2023-05-16T09:51:00;13.50;99.90
9482;DHT22;4779;48.062;11.672;2023-05-16T09:53:31;13.50;99.90
9482;DHT22;4779;48.062;11.672;2023-05-16T09:56:03;13.70;99.90
9482;DHT22;4779;48.062;11.672;2023-05-16T09:58:32;13.80;99.90
9482;DHT22;4779;48.062;11.672;2023-05-16T10:00:59;13.70;99.90
9482;DHT22;4779;48.062;11.672;2023-05-16T10:03:27;13.70;99.90
9482;DHT22;4779;48.062;11.672;2023-05-16T10:05:55;13.50;99.90
9482;DHT22;4779;48.062;11.672;2023-05-16T10:08:23;13.40;99.90
9482;DHT22;4779;48.062;11.672;2023-05-16T10:10:51;13.20;99.90
9482;DHT22;4779;48.062;11.672;2023-05-16T10:13:20;13.10;99.90
9482;DHT22;4779;48.062;11.672;2023-05-16T10:15:49;12.90;99.90
9482;DHT22;4779;48.062;11.672;2023-05-16T10:18:17;12.80;99.90
9482;DHT22;4779;48.062;11.672;2023-05-16T10:20:45;12.70;99.90
9482;DHT22;4779;48.062;11.672;2023-05-16T10:23:16;12.70;99.90
9482;DHT22;4779;48.062;11.672;2023-05-16T10:25:45;12.70;99.90
9482;DHT22;4779;48.062;11.672;2023-05-16T10:28:12;12.70;99.90
9482;DHT22;4779;48.062;11.672;2023-05-16T10:30:40;12.70;99.90
9482;DHT22;4779;48.062;11.672;2023-05-16T10:33:11;12.70;99.90
9482;DHT22;4779;48.062;11.672;2023-05-16T10:35:38;12.70;99.90
9482;DHT22;4779;48.062;11.672;2023-05-16T10:38:06;12.70;99.90
9482;DHT22;4779;48.062;11.672;2023-05-16T10:40:34;12.80;99.90
9482;DHT22;4779;48.062;11.672;2023-05-16T10:43:04;12.90;99.90
9482;DHT22;4779;48.062;11.672;2023-05-16T10:45:31;12.90;99.90
9482;DHT22;4779;48.062;11.672;2023-05-16T10:47:59;13.00;99.90
9482;DHT22;4779;48.062;11.672;2023-05-16T10:50:38;12.90;99.90
9482;DHT22;4779;48.062;11.672;2023-05-16T10:53:17;12.90;99.90
9482;DHT22;4779;48.062;11.672;2023-05-16T10:55:49;12.90;99.90
9482;DHT22;4779;48.062;11.672;2023-05-16T10:58:23;12.90;99.90
9482;DHT22;4779;48.062;11.672;2023-05-16T11:01:18;12.90;99.90
9482;DHT22;4779;48.062;11.672;2023-05-16T11:04:08;12.90;99.90
9482;DHT22;4779;48.062;11.672;2023-05-16T11:06:50;12.80;99.90
9482;DHT22;4779;48.062;11.672;2023-05-16T11:09:23;12.80;99.90
9482;DHT22;4779;48.062;11.672;2023-05-16T11:11:59;12.80;99.90
9482;DHT22;4779;48.062;11.672;2023-05-16T11:14:33;12.80;99.90
9482;DHT22;4779;48.062;11.672;2023-05-16T11:17:05;12.90;99.90
9482;DHT22;4779;48.062;11.672;2023-05-16T11:19:38;12.90;99.90
9482;DHT22;4779;48.062;11.672;2023-05-16T11:22:08;12.90;99.90
9482;DHT22;4779;48.062;11.672;2023-05-16T11:24:36;12.90;99.90
9482;DHT22;4779;48.062;11.672;2023-05-16T11:27:04;12.90;99.90
9482;DHT22;4779;48.062;11.672;2023-05-16T11:29:32;13.00;99.90
9482;DHT22;4779;48.062;11.672;2023-05-16T11:32:01;13.10;99.90
9482;DHT22;4779;48.062;11.672;2023-05-16T11:34:29;13.10;99.90
9482;DHT22;4779;48.062;11.672;2023-05-16T11:36:56;13.20;99.90
9482;DHT22;4779;48.062;11.672;2023-05-16T11:39:26;13.40;99.90
9482;DHT22;4779;48.062;11.672;2023-05-16T11:41:53;13.50;99.90
9482;DHT22;4779;48.062;11.672;2023-05-16T11:44:20;13.50;99.90
9482;DHT22;4779;48.062;11.672;2023-05-16T11:46:47;13.60;99.90
9482;DHT22;4779;48.062;11.672;2023-05-16T11:49:14;13.50;99.90
9482;DHT22;4779;48.062;11.672;2023-05-16T11:51:42;13.40;99.90
9482;DHT22;4779;48.062;11.672;2023-05-16T11:54:09;13.30;99.90
9482;DHT22;4779;48.062;11.672;2023-05-16T11:56:39;13.30;99.90
9482;DHT22;4779;48.062;11.672;2023-05-16T11:59:07;13.10;99.90
9482;DHT22;4779;48.062;11.672;2023-05-16T12:01:35;12.90;99.90
9482;DHT22;4779;48.062;11.672;2023-05-16T12:04:02;12.80;99.90
9482;DHT22;4779;48.062;11.672;2023-05-16T12:06:33;12.80;99.90
9482;DHT22;4779;48.062;11.672;2023-05-16T12:09:00;12.70;99.90
9482;DHT22;4779;48.062;11.672;2023-05-16T12:11:36;12.70;99.90
9482;DHT22;4779;48.062;11.672;2023-05-16T12:14:04;12.70;99.90
9482;DHT22;4779;48.062;11.672;2023-05-16T12:16:31;12.60;99.90
9482;DHT22;4779;48.062;11.672;2023-05-16T12:18:59;12.60;99.90
9482;DHT22;4779;48.062;11.672;2023-05-16T12:21:27;12.70;99.90
9482;DHT22;4779;48.062;11.672;2023-05-16T12:23:54;12.70;99.90
9482;DHT22;4779;48.062;11.672;2023-05-16T12:26:24;12.80;99.90
9482;DHT22;4779;48.062;11.672;2023-05-16T12:28:52;12.80;99.90
9482;DHT22;4779;48.062;11.672;2023-05-16T12:31:23;12.80;99.90
9482;DHT22;4779;48.062;11.672;2023-05-16T12:33:52;12.90;99.90
9482;DHT22;4779;48.062;11.672;2023-05-16T12:36:19;12.90;99.90
9482;DHT22;4779;48.062;11.672;2023-05-16T12:38:46;12.90;99.90
9482;DHT22;4779;48.062;11.672;2023-05-16T12:41:17;12.90;99.90
9482;DHT22;4779;48.062;11.672;2023-05-16T12:43:44;12.70;99.90
9482;DHT22;4779;48.062;11.672;2023-05-16T12:46:11;12.70;99.90
9482;DHT22;4779;48.062;11.672;2023-05-16T12:48:40;12.60;99.90
9482;DHT22;4779;48.062;11.672;2023-05-16T12:51:10;12.60;99.90
9482;DHT22;4779;48.062;11.672;2023-05-16T12:53:41;12.40;99.90
9482;DHT22;4779;48.062;11.672;2023-05-16T12:56:08;12.40;99.90
9482;DHT22;4779;48.062;11.672;2023-05-16T12:58:36;12.40;99.90
9482;DHT22;4779;48.062;11.672;2023-05-16T13:01:03;12.40;99.90
9482;DHT22;4779;48.062;11.672;2023-05-16T13:03:31;12.40;99.90
9482;DHT22;4779;48.062;11.672;2023-05-16T13:06:00;12.40;99.90
9482;DHT22;4779;48.062;11.672;2023-05-16T13:08:28;12.50;99.90
9482;DHT22;4779;48.062;11.672;2023-05-16T13:10:55;12.50;99.90
9482;DHT22;4779;48.062;11.672;2023-05-16T13:13:22;12.50;99.90
9482;DHT22;4779;48.062;11.672;2023-05-16T13:15:49;12.50;99.90
9482;DHT22;4779;48.062;11.672;2023-05-16T13:18:16;12.70;99.90
9482;DHT22;4779;48.062;11.672;2023-05-16T13:20:43;12.70;99.90
9482;DHT22;4779;48.062;11.672;2023-05-16T13:23:11;12.70;99.90
9482;DHT22;4779;48.062;11.672;2023-05-16T13:25:38;12.80;99.90
9482;DHT22;4779;48.062;11.672;2023-05-16T13:28:05;12.80;99.90
9482;DHT22;4779;48.062;11.672;2023-05-16T13:30:33;12.90;99.90
9482;DHT22;4779;48.062;11.672;2023-05-16T13:33:00;13.00;99.90
9482;DHT22;4779;48.062;11.672;2023-05-16T13:35:27;13.10;99.90
9482;DHT22;4779;48.062;11.672;2023-05-16T13:37:54;13.10;99.90
9482;DHT22;4779;48.062;11.672;2023-05-16T13:40:22;13.10;99.90
9482;DHT22;4779;48.062;11.672;2023-05-16T13:42:49;13.20;99.90
9482;DHT22;4779;48.062;11.672;2023-05-16T13:45:16;13.20;99.90
9482;DHT22;4779;48.062;11.672;2023-05-16T13:47:43;13.20;99.90
9482;DHT22;4779;48.062;11.672;2023-05-16T13:50:10;13.20;99.90
9482;DHT22;4779;48.062;11.672;2023-05-16T13:52:37;13.30;99.90
9482;DHT22;4779;48.062;11.672;2023-05-16T13:55:05;13.20;99.90
9482;DHT22;4779;48.062;11.672;2023-05-16T13:57:34;13.20;99.90
9482;DHT22;4779;48.062;11.672;2023-05-16T14:00:01;13.10;99.90
9482;DHT22;4779;48.062;11.672;2023-05-16T14:02:37;12.90;99.90
9482;DHT22;4779;48.062;11.672;2023-05-16T14:05:04;12.70;99.90
9482;DHT22;4779;48.062;11.672;2023-05-16T14:07:31;12.50;99.90
9482;DHT22;4779;48.062;11.672;2023-05-16T14:09:58;12.30;99.90
9482;DHT22;4779;48.062;11.672;2023-05-16T14:12:25;12.10;99.90
9482;DHT22;4779;48.062;11.672;2023-05-16T14:14:53;11.90;99.90
9482;DHT22;4779;48.062;11.672;2023-05-16T14:17:20;11.80;99.90
9482;DHT22;4779;48.062;11.672;2023-05-16T14:19:47;11.70;99.90
9482;DHT22;4779;48.062;11.672;2023-05-16T14:22:14;11.60;99.90
9482;DHT22;4779;48.062;11.672;2023-05-16T14:24:41;11.60;99.90
9482;DHT22;4779;48.062;11.672;2023-05-16T14:27:08;11.60;99.90
9482;DHT22;4779;48.062;11.672;2023-05-16T14:29:34;11.50;99.90
9482;DHT22;4779;48.062;11.672;2023-05-16T14:32:03;11.50;99.90
9482;DHT22;4779;48.062;11.672;2023-05-16T14:34:30;11.40;99.90
9482;DHT22;4779;48.062;11.672;2023-05-16T14:36:58;11.50;99.90
9482;DHT22;4779;48.062;11.672;2023-05-16T14:39:25;11.40;99.90
9482;DHT22;4779;48.062;11.672;2023-05-16T14:41:52;11.40;99.90
9482;DHT22;4779;48.062;11.672;2023-05-16T14:44:19;11.30;99.90
9482;DHT22;4779;48.062;11.672;2023-05-16T14:46:46;11.30;99.90
9482;DHT22;4779;48.062;11.672;2023-05-16T14:49:14;11.30;99.90
9482;DHT22;4779;48.062;11.672;2023-05-16T14:51:41;11.30;99.90
9482;DHT22;4779;48.062;11.672;2023-05-16T14:54:09;11.30;99.90
9482;DHT22;4779;48.062;11.672;2023-05-16T14:56:36;11.30;99.90
9482;DHT22;4779;48.062;11.672;2023-05-16T14:59:03;11.40;99.90
9482;DHT22;4779;48.062;11.672;2023-05-16T15:01:30;11.40;99.90
9482;DHT22;4779;48.062;11.672;2023-05-16T15:03:56;11.40;99.90
9482;DHT22;4779;48.062;11.672;2023-05-16T15:06:25;11.40;99.90
9482;DHT22;4779;48.062;11.672;2023-05-16T15:08:52;11.30;99.90
9482;DHT22;4779;48.062;11.672;2023-05-16T15:11:19;11.30;99.90
9482;DHT22;4779;48.062;11.672;2023-05-16T15:13:46;11.30;99.90
9482;DHT22;4779;48.062;11.672;2023-05-16T15:16:13;11.30;99.90
9482;DHT22;4779;48.062;11.672;2023-05-16T15:18:40;11.20;99.90
9482;DHT22;4779;48.062;11.672;2023-05-16T15:21:08;11.20;99.90
9482;DHT22;4779;48.062;11.672;2023-05-16T15:23:36;11.20;99.90
9482;DHT22;4779;48.062;11.672;2023-05-16T15:26:03;11.20;99.90
9482;DHT22;4779;48.062;11.672;2023-05-16T15:28:30;11.30;99.90
9482;DHT22;4779;48.062;11.672;2023-05-16T15:30:57;11.30;99.90
9482;DHT22;4779;48.062;11.672;2023-05-16T15:33:24;11.30;99.90
9482;DHT22;4779;48.062;11.672;2023-05-16T15:35:51;11.40;99.90
9482;DHT22;4779;48.062;11.672;2023-05-16T15:38:18;11.40;99.90
9482;DHT22;4779;48.062;11.672;2023-05-16T15:40:46;11.40;99.90
9482;DHT22;4779;48.062;11.672;2023-05-16T15:43:13;11.40;99.90
9482;DHT22;4779;48.062;11.672;2023-05-16T15:45:42;11.40;99.90
9482;DHT22;4779;48.062;11.672;2023-05-16T15:48:09;11.30;99.90
9482;DHT22;4779;48.062;11.672;2023-05-16T15:50:36;11.40;99.90